Terminal Aerodrome Forecast
Issued by NWS Des Moines, IA

Home | Current Version | Previous Version | Text Only | Print | Product List | Glossary On
Versions: 1 2 3 4 5 6 7 8 9 10 11 12 13 14
000
FTUS43 KDMX 101127 AAA
TAFDSM
TAF AMD
KDSM 101127Z 1011/1106 VRB04KT P6SM SCT030 OVC050
     FM101330 13005KT P6SM VCSH SCT020 OVC035
      TEMPO 1014/1016 4SM -SHSN OVC025
     FM101600 13007KT 3SM -SHSN SCT015 OVC025
     FM101900 14010KT P6SM SCT020 OVC030
     FM110200 14011G17KT 3SM BR VCSH SCT015 OVC025=

USA.gov is the U.S. government's official web portal to all federal, state and local government web resources and services.